South Holland, IL (60473)

10:49 PM CDT on August 30, 2015 (GMT -0500)
Lansing unincorporated Cook County | | Change Station
CLOSE
Current Station
Personal Weather Station
Location: Lansing, IL
Elevation: 630 ft
Nearby Weather Stations

Elev 630 ft 41.56 °N, 87.58 °W | Updated 20 minutes ago

Clear
Clear
63.7 °F
Feels Like 63.7 °F
N
0.0
Wind Variable Wind from North

Today
High -- | Low -- °F
--% Chance of Precip.
Yesterday
High -- | Low -- °F
Precip. -- in
6:14 AM 7:27 PM
Full, 97% visible
Pressure 30.04 in
Visibility 1.5 miles
Clouds
Dew Point 63 °F
Humidity 97%
Rainfall in
Snow Depth Not available.
UV Not available.
Pollen 9.30 out of 12
Air Quality Not available.
Flu Activity Not available.
METAR KIGQ 310335Z AUTO 00000KT 1 1/2SM BR VV007 17/17 A3004 RMK AO2 T01740171
Pressure 30.04 in
Visibility 1.5 miles
Clouds
Dew Point 63 °F
Humidity 97%
Rainfall in
Snow Depth Not available.
UV Not available.
Pollen 9.30 out of 12
Air Quality Not available.
Flu Activity Not available.
METAR KIGQ 310335Z AUTO 00000KT 1 1/2SM BR VV007 17/17 A3004 RMK AO2 T01740171

10-Day Weather Forecast

×

Almanac

Astronomy

Aug. 30, 2015 Rise Set
Actual Time
Civil Twilight
Nautical Twilight
Astronomical Twilight
Moon
Length of Visible Light
Length of Day
Tomorrow will be .
, % of the Moon is Illuminated

Today's Extremes

State Highs State Lows

Community

WunderPhotos

Upload Photos

1,851,179 photos uploaded!

WunderBlogs® & News

Nearby

Air Quality

  Air Quality AQ Index Pollutant
Not available.

Snow Depth

Station Depth Elevation

Earthquake Activity

City Distance Mag. Time & Date
Minimum magnitude displayed is 2.5.

Coastal Water Temperatures

Place Temperature

Stations

Nearby Weather Stations

Station Location Temp. Windchill Dew Point Humidity Wind Precip. Elev Updated Type